Time;durP1;ratioP1;P1;durP2;ratioP2;P2;SDS_P1;SDS_P2;PMS_P1;PMS_P2;Temp;Humidity;BMP_temperature;BMP_pressure;BME280_temperature;BME280_humidity;BME280_pressure;Samples;Min_cycle;Max_cycle;Signal;HPM_P1;HPM_P2
2021/09/03 00:02:20;;;;;;;3.40;1.42;;;11.90;71.20;;;;;;4860308;29;20569;-64
2021/09/03 00:04:46;;;;;;;3.20;1.55;;;11.90;71.10;;;;;;4860860;29;20044;-64
2021/09/03 00:07:11;;;;;;;3.40;1.50;;;11.80;71.20;;;;;;4860676;29;20393;-65
2021/09/03 00:09:38;;;;;;;4.40;1.80;;;11.60;71.50;;;;;;4860540;29;20030;-64
2021/09/03 00:12:06;;;;;;;4.55;1.90;;;11.50;72.10;;;;;;4860944;29;20852;-64
2021/09/03 00:14:33;;;;;;;5.13;1.60;;;11.30;72.40;;;;;;4860800;29;20442;-63
2021/09/03 00:17:00;;;;;;;4.40;1.70;;;11.10;73.00;;;;;;4859918;29;20094;-63
2021/09/03 00:19:26;;;;;;;3.50;1.70;;;11.10;73.40;;;;;;4860009;29;20038;-63
2021/09/03 00:21:52;;;;;;;4.25;1.70;;;11.00;73.70;;;;;;4860723;29;20053;-64
2021/09/03 00:24:19;;;;;;;3.97;1.70;;;10.90;73.80;;;;;;4860587;29;20512;-64
2021/09/03 00:26:45;;;;;;;4.28;1.90;;;10.90;74.00;;;;;;4860324;29;20487;-63
2021/09/03 00:29:11;;;;;;;3.67;1.70;;;10.80;74.20;;;;;;4859906;29;20033;-64
2021/09/03 00:31:36;;;;;;;4.22;1.70;;;10.70;74.20;;;;;;4860157;29;20109;-63
2021/09/03 00:34:02;;;;;;;4.32;1.92;;;10.70;74.60;;;;;;4860098;29;20026;-63
2021/09/03 00:36:28;;;;;;;3.38;1.80;;;10.60;74.50;;;;;;4860162;29;20076;-65
2021/09/03 00:38:53;;;;;;;3.80;1.88;;;10.50;75.00;;;;;;4860110;29;20385;-64
2021/09/03 00:41:19;;;;;;;3.97;1.90;;;10.50;74.90;;;;;;4859371;29;20057;-64
2021/09/03 00:43:46;;;;;;;3.50;1.98;;;10.40;74.90;;;;;;4860071;29;20071;-64
2021/09/03 00:46:12;;;;;;;4.40;1.83;;;10.40;75.20;;;;;;4859933;29;20132;-64
2021/09/03 00:48:37;;;;;;;4.00;1.77;;;10.30;75.30;;;;;;4859992;29;20545;-63
2021/09/03 00:51:04;;;;;;;3.42;1.80;;;10.30;75.50;;;;;;4859705;29;20031;-64
2021/09/03 00:53:30;;;;;;;3.90;1.80;;;10.20;75.40;;;;;;4859699;29;20053;-64
2021/09/03 00:55:58;;;;;;;3.33;1.60;;;10.20;75.60;;;;;;4860010;29;20034;-64
2021/09/03 00:58:23;;;;;;;3.80;1.83;;;10.10;75.60;;;;;;4859676;29;20066;-64
2021/09/03 01:00:49;;;;;;;4.28;1.85;;;10.10;76.00;;;;;;4859903;29;20033;-64
2021/09/03 01:03:16;;;;;;;3.75;1.80;;;10.10;75.90;;;;;;4859873;29;20044;-64
2021/09/03 01:05:42;;;;;;;3.30;1.75;;;10.10;76.00;;;;;;4859134;29;20034;-64
2021/09/03 01:08:07;;;;;;;2.67;1.60;;;10.00;75.70;;;;;;4859228;29;20087;-63
2021/09/03 01:10:34;;;;;;;3.00;1.70;;;10.00;76.00;;;;;;4859855;29;20037;-64
2021/09/03 01:12:59;;;;;;;3.20;1.70;;;10.00;76.00;;;;;;4859845;29;20064;-65
2021/09/03 01:15:25;;;;;;;6.18;2.08;;;10.00;76.30;;;;;;4859958;29;20057;-64
2021/09/03 01:17:50;;;;;;;3.63;1.88;;;10.00;76.60;;;;;;4859602;29;20477;-63
2021/09/03 01:20:16;;;;;;;4.68;1.80;;;9.90;76.50;;;;;;4859570;29;20049;-64
2021/09/03 01:22:42;;;;;;;4.25;1.95;;;9.80;76.60;;;;;;4859456;29;20446;-63
2021/09/03 01:25:09;;;;;;;4.55;1.80;;;9.80;76.90;;;;;;4859548;29;20112;-63
2021/09/03 01:27:34;;;;;;;3.83;1.73;;;9.80;77.20;;;;;;4859247;29;20037;-63
2021/09/03 01:30:00;;;;;;;4.22;1.80;;;9.80;77.10;;;;;;4859699;29;20496;-63
2021/09/03 01:32:26;;;;;;;3.78;1.88;;;9.80;77.00;;;;;;4859536;29;20452;-63
2021/09/03 01:34:51;;;;;;;3.53;1.70;;;9.80;77.00;;;;;;4859463;29;20485;-63
2021/09/03 01:37:17;;;;;;;4.85;2.08;;;9.80;77.00;;;;;;4859304;29;20030;-63
2021/09/03 01:39:43;;;;;;;3.70;1.90;;;9.80;77.30;;;;;;4859409;29;20028;-64
2021/09/03 01:42:09;;;;;;;4.53;2.20;;;9.70;77.30;;;;;;4859530;29;20070;-63
2021/09/03 01:44:34;;;;;;;4.75;2.22;;;9.70;77.60;;;;;;4859502;29;20037;-63
2021/09/03 01:47:00;;;;;;;4.47;2.25;;;9.70;77.70;;;;;;4859235;29;20077;-64
2021/09/03 01:49:25;;;;;;;4.63;2.40;;;9.60;78.00;;;;;;4859093;29;20033;-64
2021/09/03 01:51:51;;;;;;;5.97;2.33;;;9.50;78.10;;;;;;4859189;29;20045;-64
2021/09/03 01:54:17;;;;;;;4.45;2.25;;;9.40;78.40;;;;;;4859525;29;20033;-64
2021/09/03 01:56:43;;;;;;;5.55;2.05;;;9.30;78.50;;;;;;4859340;29;20093;-64
2021/09/03 01:59:09;;;;;;;4.53;2.50;;;9.20;78.40;;;;;;4859361;29;20038;-64
2021/09/03 02:01:34;;;;;;;5.25;2.17;;;9.20;78.90;;;;;;4859214;29;20065;-64
2021/09/03 02:04:00;;;;;;;4.45;2.30;;;9.10;78.90;;;;;;4859056;29;20032;-64
2021/09/03 02:06:26;;;;;;;4.90;2.45;;;9.20;79.70;;;;;;4857747;29;20495;-64
2021/09/03 02:08:51;;;;;;;4.60;2.33;;;9.10;79.30;;;;;;4859021;29;20033;-64
2021/09/03 02:11:17;;;;;;;5.15;2.30;;;9.10;79.40;;;;;;4859100;29;20026;-64
2021/09/03 02:13:43;;;;;;;4.18;2.30;;;9.10;79.70;;;;;;4859124;29;20059;-64
2021/09/03 02:16:09;;;;;;;4.43;2.22;;;9.10;79.90;;;;;;4860630;29;20037;-64
2021/09/03 02:18:35;;;;;;;4.93;2.58;;;9.10;79.80;;;;;;4862290;29;20038;-64
2021/09/03 02:21:00;;;;;;;4.15;2.20;;;9.10;80.00;;;;;;4862725;29;20041;-64
2021/09/03 02:23:26;;;;;;;5.13;2.47;;;9.10;80.10;;;;;;4862419;29;20060;-64
2021/09/03 02:25:52;;;;;;;4.50;2.40;;;9.10;80.10;;;;;;4862400;29;20036;-64
2021/09/03 02:28:18;;;;;;;5.57;2.20;;;9.10;80.10;;;;;;4862214;29;20037;-64
2021/09/03 02:30:44;;;;;;;3.90;2.15;;;9.10;80.10;;;;;;4862495;29;20028;-64
2021/09/03 02:33:11;;;;;;;5.55;2.40;;;9.10;80.10;;;;;;4862429;29;20021;-63
2021/09/03 02:35:38;;;;;;;4.55;2.30;;;9.10;80.30;;;;;;4862385;29;20514;-65
2021/09/03 02:38:04;;;;;;;4.50;2.30;;;9.10;80.40;;;;;;4861849;29;20041;-64
2021/09/03 02:40:30;;;;;;;5.38;2.20;;;9.20;80.50;;;;;;4862205;29;20026;-64
2021/09/03 02:42:55;;;;;;;4.20;2.10;;;9.10;80.30;;;;;;4862483;29;20868;-64
2021/09/03 02:45:22;;;;;;;5.13;2.50;;;9.20;80.60;;;;;;4862164;29;20033;-64
2021/09/03 02:47:47;;;;;;;5.63;2.30;;;9.20;80.30;;;;;;4861686;29;20037;-63
2021/09/03 02:50:13;;;;;;;5.45;2.65;;;9.20;80.20;;;;;;4861770;29;20033;-64
2021/09/03 02:52:39;;;;;;;5.65;2.60;;;9.20;80.10;;;;;;4861998;29;20036;-64
2021/09/03 02:55:06;;;;;;;6.00;2.78;;;9.20;80.20;;;;;;4861927;29;20026;-64
2021/09/03 02:57:32;;;;;;;5.35;2.35;;;9.10;80.20;;;;;;4861680;29;20057;-63
2021/09/03 02:59:57;;;;;;;5.38;2.60;;;9.00;80.40;;;;;;4861986;29;20057;-63
2021/09/03 03:02:23;;;;;;;5.25;2.80;;;9.00;80.60;;;;;;4861932;29;20474;-63
2021/09/03 03:04:49;;;;;;;5.38;2.83;;;8.90;80.90;;;;;;4861502;29;20056;-64
2021/09/03 03:07:14;;;;;;;5.70;2.65;;;8.90;81.10;;;;;;4861542;29;20461;-64
2021/09/03 03:09:40;;;;;;;5.40;2.97;;;9.00;81.20;;;;;;4861681;29;20029;-63
2021/09/03 03:12:06;;;;;;;5.70;2.50;;;8.90;81.00;;;;;;4861764;29;20072;-64
2021/09/03 03:14:35;;;;;;;5.32;2.60;;;8.90;81.00;;;;;;4861610;29;20389;-63
2021/09/03 03:17:02;;;;;;;5.13;2.60;;;8.90;80.90;;;;;;4861393;29;20041;-62
2021/09/03 03:19:29;;;;;;;5.47;2.63;;;8.90;80.80;;;;;;4861561;29;20410;-63
2021/09/03 03:21:57;;;;;;;6.07;2.90;;;8.90;80.80;;;;;;4861639;29;20421;-63
2021/09/03 03:24:23;;;;;;;4.95;2.55;;;8.90;80.90;;;;;;4861466;29;20037;-63
2021/09/03 03:26:49;;;;;;;5.45;2.70;;;8.90;81.00;;;;;;4860891;29;20469;-65
2021/09/03 03:29:15;;;;;;;5.07;2.83;;;9.00;80.90;;;;;;4860880;29;20037;-64
2021/09/03 03:31:41;;;;;;;7.05;2.70;;;8.90;80.70;;;;;;4861275;29;20037;-64
2021/09/03 03:34:09;;;;;;;5.22;2.65;;;9.00;80.80;;;;;;4861441;29;20026;-63
2021/09/03 03:36:35;;;;;;;5.70;2.80;;;9.00;80.70;;;;;;4861203;29;20389;-65
2021/09/03 03:39:01;;;;;;;5.03;2.60;;;9.00;80.60;;;;;;4860715;29;20033;-64
2021/09/03 03:41:27;;;;;;;5.45;2.75;;;9.00;80.50;;;;;;4861110;29;20041;-64
2021/09/03 03:43:52;;;;;;;5.88;2.92;;;9.00;80.60;;;;;;4861252;29;20525;-64
2021/09/03 03:46:18;;;;;;;4.53;2.63;;;9.00;80.50;;;;;;4861030;29;20401;-65
2021/09/03 03:48:44;;;;;;;6.00;2.72;;;9.00;80.50;;;;;;4860750;29;20045;-63
2021/09/03 03:51:09;;;;;;;5.75;2.78;;;9.00;80.40;;;;;;4860716;29;20036;-64
2021/09/03 03:53:35;;;;;;;5.53;2.92;;;9.00;80.50;;;;;;4860769;29;20484;-63
2021/09/03 03:56:00;;;;;;;6.47;3.17;;;9.10;80.40;;;;;;4866374;29;20512;-65
2021/09/03 03:58:26;;;;;;;6.65;3.80;;;9.20;80.40;;;;;;4860784;29;20025;-64
2021/09/03 04:00:52;;;;;;;6.88;3.45;;;9.20;80.30;;;;;;4859899;29;20048;-64
2021/09/03 04:03:17;;;;;;;7.13;3.30;;;9.20;80.10;;;;;;4860464;29;20109;-65
2021/09/03 04:05:43;;;;;;;5.68;2.70;;;9.30;80.00;;;;;;4860676;29;20033;-65
2021/09/03 04:08:09;;;;;;;5.63;2.80;;;9.30;79.80;;;;;;4860191;29;20041;-65
2021/09/03 04:10:35;;;;;;;5.45;2.90;;;9.30;79.70;;;;;;4860357;29;20021;-66
2021/09/03 04:13:00;;;;;;;6.38;3.22;;;9.40;79.70;;;;;;4860174;29;20040;-65
2021/09/03 04:15:26;;;;;;;6.68;2.97;;;9.40;79.40;;;;;;4860477;29;20372;-65
2021/09/03 04:17:52;;;;;;;5.97;2.70;;;9.40;79.50;;;;;;4860355;29;20037;-65
2021/09/03 04:20:17;;;;;;;7.82;2.85;;;9.50;79.30;;;;;;4859871;29;20104;-66
2021/09/03 04:22:43;;;;;;;5.53;2.90;;;9.50;79.10;;;;;;4860157;29;20513;-66
2021/09/03 04:25:10;;;;;;;7.40;2.80;;;9.60;78.80;;;;;;4843635;29;20033;-65
2021/09/03 04:27:37;;;;;;;6.93;3.03;;;9.60;78.70;;;;;;4860026;29;20044;-65
2021/09/03 04:30:05;;;;;;;4.93;2.60;;;9.70;78.60;;;;;;4860059;29;20037;-65
2021/09/03 04:32:30;;;;;;;6.80;2.90;;;9.70;78.30;;;;;;4860241;29;20048;-65
2021/09/03 04:34:56;;;;;;;4.97;2.67;;;9.70;78.30;;;;;;4860368;29;20477;-64
2021/09/03 04:37:21;;;;;;;5.97;2.70;;;9.80;78.20;;;;;;4859918;29;20795;-65
2021/09/03 04:39:47;;;;;;;6.75;2.67;;;9.80;78.00;;;;;;4860015;29;20030;-66
2021/09/03 04:42:13;;;;;;;5.00;2.50;;;9.90;78.00;;;;;;4859794;29;20022;-65
2021/09/03 04:44:39;;;;;;;6.13;2.70;;;10.00;77.40;;;;;;4859972;29;20484;-65
2021/09/03 04:47:04;;;;;;;6.13;2.70;;;10.10;77.50;;;;;;4860008;29;20061;-65
2021/09/03 04:49:30;;;;;;;5.28;2.40;;;10.10;77.50;;;;;;4859866;29;20037;-66
2021/09/03 04:51:56;;;;;;;4.68;2.33;;;10.20;77.10;;;;;;4859611;29;20026;-65
2021/09/03 04:54:21;;;;;;;6.03;2.65;;;10.20;77.00;;;;;;4858585;29;20085;-65
2021/09/03 04:56:47;;;;;;;5.85;2.78;;;10.30;77.00;;;;;;4859318;29;20369;-66
2021/09/03 04:59:13;;;;;;;5.13;2.35;;;10.40;76.60;;;;;;4859425;29;20141;-66
2021/09/03 05:01:38;;;;;;;4.72;2.40;;;10.40;76.30;;;;;;4858810;29;20025;-66
2021/09/03 05:04:04;;;;;;;7.70;2.53;;;10.50;76.30;;;;;;4859472;29;20044;-67
2021/09/03 05:06:30;;;;;;;4.60;2.13;;;10.60;76.20;;;;;;4859644;29;20033;-66
2021/09/03 05:08:56;;;;;;;4.70;2.53;;;10.70;76.10;;;;;;4859668;29;20033;-66
2021/09/03 05:11:21;;;;;;;4.55;2.30;;;10.70;75.70;;;;;;4859349;29;20047;-66
2021/09/03 05:13:47;;;;;;;4.50;2.20;;;10.80;75.40;;;;;;4859343;29;20034;-66
2021/09/03 05:16:13;;;;;;;4.50;2.20;;;10.90;75.10;;;;;;4859693;29;20040;-65
2021/09/03 05:18:39;;;;;;;4.70;2.30;;;11.00;74.80;;;;;;4859480;29;20030;-66
2021/09/03 05:21:06;;;;;;;5.25;2.47;;;11.00;74.50;;;;;;4858899;29;20025;-65
2021/09/03 05:23:33;;;;;;;4.40;2.20;;;11.10;74.60;;;;;;4859327;29;20480;-66
2021/09/03 05:25:58;;;;;;;5.30;2.15;;;11.10;74.40;;;;;;4859492;29;20036;-65
2021/09/03 05:28:27;;;;;;;4.85;2.20;;;11.20;74.10;;;;;;4859120;29;20033;-65
2021/09/03 05:30:53;;;;;;;4.80;2.05;;;11.30;74.00;;;;;;4859389;29;20112;-65
2021/09/03 05:33:19;;;;;;;4.97;2.20;;;11.30;73.90;;;;;;4859487;29;20081;-65
2021/09/03 05:35:45;;;;;;;4.38;2.08;;;11.40;73.80;;;;;;4859464;29;20034;-67
2021/09/03 05:38:10;;;;;;;6.07;1.90;;;11.50;73.20;;;;;;4859385;29;20529;-66
2021/09/03 05:40:36;;;;;;;5.80;2.22;;;11.50;73.10;;;;;;4859040;29;20029;-66
2021/09/03 05:43:02;;;;;;;5.95;2.55;;;11.60;73.00;;;;;;4859323;29;20041;-66
2021/09/03 05:45:28;;;;;;;5.70;2.40;;;11.70;72.80;;;;;;4859237;29;20036;-66
2021/09/03 05:47:54;;;;;;;4.80;2.10;;;11.70;72.60;;;;;;4859025;29;20033;-69
2021/09/03 05:50:20;;;;;;;4.60;2.13;;;11.80;72.50;;;;;;4859531;29;20489;-66
2021/09/03 05:52:46;;;;;;;5.78;2.15;;;11.90;72.40;;;;;;4863122;29;20076;-65
2021/09/03 05:55:12;;;;;;;4.88;1.98;;;11.90;72.00;;;;;;4863027;29;20105;-65
2021/09/03 05:57:39;;;;;;;5.38;2.20;;;12.00;71.70;;;;;;4862509;29;20022;-66
2021/09/03 06:00:05;;;;;;;5.93;2.00;;;12.10;71.40;;;;;;4862631;29;20085;-65
2021/09/03 06:02:31;;;;;;;5.50;2.05;;;12.20;71.30;;;;;;4862726;29;20033;-65
2021/09/03 06:04:57;;;;;;;3.50;1.80;;;12.30;70.40;;;;;;4862959;29;20481;-66
2021/09/03 06:07:23;;;;;;;4.00;1.80;;;12.40;70.00;;;;;;4862534;29;20395;-65
2021/09/03 06:09:48;;;;;;;3.25;1.60;;;12.40;69.30;;;;;;4862377;29;20033;-65
2021/09/03 06:12:14;;;;;;;4.55;1.60;;;12.50;68.90;;;;;;4862767;29;20029;-66
2021/09/03 06:14:40;;;;;;;3.72;1.50;;;12.60;68.40;;;;;;4862950;29;20049;-66
2021/09/03 06:17:06;;;;;;;4.30;1.70;;;12.60;68.60;;;;;;4862612;29;20030;-66
2021/09/03 06:19:31;;;;;;;3.67;1.40;;;12.70;68.00;;;;;;4861807;29;20093;-66
2021/09/03 06:21:59;;;;;;;4.85;1.60;;;12.80;67.10;;;;;;4845316;29;20053;-66
2021/09/03 06:24:31;;;;;;;5.00;1.73;;;12.90;66.60;;;;;;4862763;29;20029;-66
2021/09/03 06:26:59;;;;;;;3.42;1.60;;;12.90;66.00;;;;;;4862234;29;20029;-66
2021/09/03 06:29:43;;;;;;;3.90;1.60;;;13.00;65.70;;;;;;4860072;29;20097;-66
2021/09/03 06:32:19;;;;;;;4.32;1.65;;;13.10;65.90;;;;;;4862158;29;20029;-66
2021/09/03 06:34:50;;;;;;;4.03;1.52;;;13.10;65.40;;;;;;4872453;29;20081;-68
2021/09/03 06:37:16;;;;;;;3.78;1.40;;;13.20;65.10;;;;;;4868648;29;20447;-67
2021/09/03 06:39:42;;;;;;;3.28;1.50;;;13.40;64.70;;;;;;4861503;29;20040;-66
2021/09/03 06:42:09;;;;;;;4.70;1.50;;;13.40;63.90;;;;;;4862033;29;20026;-66
2021/09/03 06:44:35;;;;;;;2.60;1.30;;;13.50;63.40;;;;;;4862073;29;20029;-67
2021/09/03 06:47:02;;;;;;;2.67;1.35;;;13.60;62.70;;;;;;4861456;29;20037;-67
2021/09/03 06:49:29;;;;;;;2.50;1.20;;;13.70;62.50;;;;;;4861725;29;20052;-67
2021/09/03 06:51:55;;;;;;;2.63;1.27;;;13.80;61.70;;;;;;4861370;29;20450;-67
2021/09/03 06:54:21;;;;;;;3.72;1.50;;;13.80;62.10;;;;;;4861323;29;20026;-67
2021/09/03 06:56:47;;;;;;;3.08;1.48;;;13.90;61.80;;;;;;4861137;29;20374;-66
2021/09/03 06:59:12;;;;;;;3.60;1.40;;;13.90;61.50;;;;;;4861975;29;20089;-65
2021/09/03 07:01:38;;;;;;;3.67;1.27;;;14.00;61.30;;;;;;4860819;29;20536;-66
2021/09/03 07:04:04;;;;;;;3.78;1.38;;;14.10;61.00;;;;;;4860578;29;20025;-66
2021/09/03 07:06:30;;;;;;;3.58;1.40;;;14.20;60.30;;;;;;4862016;29;20040;-67
2021/09/03 07:08:57;;;;;;;3.90;1.40;;;14.30;60.50;;;;;;4861316;29;20042;-66
2021/09/03 07:11:23;;;;;;;2.58;1.23;;;14.40;60.80;;;;;;4861218;29;20054;-67
2021/09/03 07:13:49;;;;;;;3.15;1.30;;;14.60;59.40;;;;;;4861240;29;20029;-67
2021/09/03 07:16:15;;;;;;;2.38;1.10;;;14.70;59.90;;;;;;4861417;29;20381;-66
2021/09/03 07:18:40;;;;;;;3.13;1.45;;;14.80;59.50;;;;;;4861217;29;20459;-67
2021/09/03 07:21:06;;;;;;;3.13;1.30;;;15.00;59.70;;;;;;4861013;29;20025;-67
2021/09/03 07:23:32;;;;;;;3.25;1.23;;;15.20;57.90;;;;;;4844446;29;20506;-67
2021/09/03 07:26:01;;;;;;;2.58;1.10;;;15.30;57.60;;;;;;4860829;29;20037;-67
2021/09/03 07:28:27;;;;;;;2.35;1.00;;;15.40;57.00;;;;;;4860376;29;20525;-67
2021/09/03 07:30:53;;;;;;;4.53;1.48;;;15.50;56.90;;;;;;4860745;29;20029;-66
2021/09/03 07:33:18;;;;;;;1.63;1.00;;;15.70;57.10;;;;;;4860896;29;20545;-65
2021/09/03 07:35:45;;;;;;;2.03;1.02;;;16.00;54.80;;;;;;4861149;29;20025;-66
2021/09/03 07:38:11;;;;;;;2.42;1.13;;;16.10;54.30;;;;;;4844329;29;20041;-66
2021/09/03 07:40:37;;;;;;;2.30;1.10;;;16.30;53.70;;;;;;4860325;29;20037;-66
2021/09/03 07:43:07;;;;;;;2.70;1.10;;;16.40;54.20;;;;;;4860261;29;20044;-67
2021/09/03 07:45:37;;;;;;;2.28;0.93;;;16.70;54.30;;;;;;4860088;29;20041;-66
2021/09/03 07:48:04;;;;;;;2.15;1.00;;;16.90;52.50;;;;;;4860059;29;20117;-66
2021/09/03 07:50:32;;;;;;;5.72;2.10;;;17.10;51.80;;;;;;4860552;29;20077;-67
2021/09/03 07:52:58;;;;;;;4.60;1.40;;;17.30;52.20;;;;;;4860668;29;20022;-65
2021/09/03 07:55:27;;;;;;;3.70;1.50;;;17.50;52.30;;;;;;4860633;29;20036;-66
2021/09/03 07:57:53;;;;;;;2.25;1.00;;;17.80;52.70;;;;;;4860086;29;20386;-66
2021/09/03 08:00:19;;;;;;;3.40;1.45;;;18.00;50.40;;;;;;4860298;29;20037;-66
2021/09/03 08:02:44;;;;;;;3.80;1.20;;;18.20;49.70;;;;;;4859901;29;20033;-67
2021/09/03 08:05:11;;;;;;;5.68;1.77;;;18.30;49.60;;;;;;4860128;29;20037;-67
2021/09/03 08:07:41;;;;;;;2.58;1.10;;;18.50;50.00;;;;;;4859512;29;20037;-67
2021/09/03 08:10:11;;;;;;;1.70;1.00;;;18.80;49.50;;;;;;4860182;29;20045;-67
2021/09/03 08:12:38;;;;;;;2.00;0.90;;;18.80;47.80;;;;;;4843430;29;20034;-65
2021/09/03 08:15:05;;;;;;;2.55;1.00;;;18.60;48.40;;;;;;4860163;29;20044;-66
2021/09/03 08:17:31;;;;;;;2.67;1.20;;;18.60;49.00;;;;;;4860620;29;20667;-68
2021/09/03 08:19:57;;;;;;;1.48;0.80;;;18.90;48.20;;;;;;4843957;29;20037;-66
2021/09/03 08:22:23;;;;;;;1.88;0.90;;;18.90;48.30;;;;;;4862774;29;20501;-68
2021/09/03 08:24:49;;;;;;;2.97;0.90;;;18.90;48.40;;;;;;4859996;29;20078;-66
2021/09/03 08:27:14;;;;;;;2.17;0.98;;;19.00;48.40;;;;;;4843075;29;20051;-68
2021/09/03 08:29:40;;;;;;;2.90;0.85;;;19.10;47.80;;;;;;4858067;29;20052;-67
2021/09/03 08:32:06;;;;;;;2.45;0.70;;;19.30;48.00;;;;;;4859418;29;20486;-67
2021/09/03 08:34:32;;;;;;;3.78;1.10;;;19.60;47.90;;;;;;4859067;29;20040;-66
2021/09/03 08:36:58;;;;;;;1.48;0.88;;;20.20;47.30;;;;;;4859803;29;20025;-67
2021/09/03 08:39:23;;;;;;;1.73;0.90;;;20.50;45.20;;;;;;4859766;29;20489;-67
2021/09/03 08:41:51;;;;;;;2.80;1.00;;;20.70;45.30;;;;;;4859632;29;20389;-67
2021/09/03 08:44:17;;;;;;;2.00;0.93;;;21.10;44.30;;;;;;4859620;29;20496;-68
2021/09/03 08:46:44;;;;;;;1.90;0.90;;;21.20;43.80;;;;;;4859868;29;20033;-68
2021/09/03 08:49:11;;;;;;;2.30;0.90;;;21.30;43.90;;;;;;4859401;29;20524;-68
2021/09/03 08:51:37;;;;;;;2.65;0.90;;;21.20;42.90;;;;;;4842901;29;20040;-68
2021/09/03 08:54:03;;;;;;;2.25;0.90;;;20.90;43.00;;;;;;4858825;29;20175;-67
2021/09/03 08:56:29;;;;;;;2.25;0.80;;;20.60;44.10;;;;;;4859097;29;20109;-66
2021/09/03 08:58:55;;;;;;;1.73;0.80;;;20.90;44.10;;;;;;4859399;29;20556;-67
2021/09/03 09:01:21;;;;;;;2.17;1.00;;;21.20;43.40;;;;;;4856669;29;20068;-66
2021/09/03 09:03:48;;;;;;;1.75;0.80;;;21.30;42.70;;;;;;4868075;29;20029;-67
2021/09/03 09:06:25;;;;;;;2.83;0.80;;;21.20;42.40;;;;;;4859608;29;20040;-66
2021/09/03 09:09:06;;;;;;;2.25;0.88;;;21.20;42.90;;;;;;4859582;29;20032;-67
2021/09/03 09:11:34;;;;;;;1.67;0.80;;;21.50;40.90;;;;;;4859270;29;20036;-68
2021/09/03 09:14:04;;;;;;;2.03;0.80;;;21.30;41.90;;;;;;4859889;29;20033;-68
2021/09/03 09:16:31;;;;;;;4.43;1.00;;;21.50;42.40;;;;;;4859538;29;20113;-67
2021/09/03 09:18:58;;;;;;;1.48;0.80;;;21.80;42.40;;;;;;4859580;29;20108;-66
2021/09/03 09:21:36;;;;;;;2.17;0.80;;;22.20;41.20;;;;;;4859503;29;20033;-68
2021/09/03 09:24:03;;;;;;;1.83;0.73;;;22.10;41.20;;;;;;4859553;29;20069;-67
2021/09/03 09:26:44;;;;;;;1.67;0.80;;;22.20;41.70;;;;;;4858620;29;20030;-69
2021/09/03 09:29:18;;;;;;;2.38;0.90;;;22.50;40.40;;;;;;4862040;29;20485;-69
2021/09/03 09:31:46;;;;;;;1.80;0.70;;;23.00;39.40;;;;;;4850214;29;20041;-68
2021/09/03 09:34:20;;;;;;;1.63;0.88;;;23.10;39.60;;;;;;4862165;29;20021;-69
2021/09/03 09:36:48;;;;;;;2.35;0.88;;;23.20;38.90;;;;;;4866964;29;20033;-69
2021/09/03 09:39:14;;;;;;;2.05;0.90;;;23.10;39.40;;;;;;4859400;29;20041;-69
2021/09/03 09:41:43;;;;;;;2.28;0.77;;;23.10;39.80;;;;;;4859497;29;20093;-67
2021/09/03 09:44:08;;;;;;;3.00;0.80;;;22.90;39.00;;;;;;4863860;29;20029;-67
2021/09/03 09:46:34;;;;;;;3.28;0.80;;;22.70;39.00;;;;;;4877879;29;20075;-67
2021/09/03 09:49:05;;;;;;;1.27;0.70;;;23.00;38.40;;;;;;4860926;29;20025;-68
2021/09/03 09:51:50;;;;;;;1.95;0.70;;;23.20;38.30;;;;;;4859083;29;20029;-67
2021/09/03 09:54:23;;;;;;;2.05;0.95;;;23.60;37.90;;;;;;4861418;29;20178;-67
2021/09/03 09:56:56;;;;;;;2.03;0.90;;;23.70;37.70;;;;;;4858564;29;20036;-68
2021/09/03 09:59:24;;;;;;;1.83;0.90;;;23.30;37.20;;;;;;4859091;29;20743;-66
2021/09/03 10:01:52;;;;;;;1.58;0.80;;;22.80;38.50;;;;;;4857643;29;20409;-67
2021/09/03 10:04:21;;;;;;;2.08;0.80;;;22.70;39.20;;;;;;4854523;29;20055;-67
2021/09/03 10:06:48;;;;;;;1.88;0.95;;;22.70;39.50;;;;;;4858494;29;20446;-68
2021/09/03 10:09:20;;;;;;;2.28;0.75;;;22.90;39.30;;;;;;4858257;29;20037;-66
2021/09/03 10:11:48;;;;;;;2.38;0.85;;;23.20;39.70;;;;;;4858669;29;20545;-66
2021/09/03 10:14:16;;;;;;;2.22;0.90;;;23.20;39.40;;;;;;4858857;29;20026;-66
2021/09/03 10:16:47;;;;;;;1.70;0.80;;;23.20;39.70;;;;;;4858404;29;20038;-67
2021/09/03 10:19:16;;;;;;;2.65;0.80;;;23.20;38.50;;;;;;4857529;29;20037;-66
2021/09/03 10:21:42;;;;;;;1.42;0.80;;;23.00;38.70;;;;;;4858635;29;20533;-66
2021/09/03 10:24:14;;;;;;;2.17;1.02;;;22.80;38.70;;;;;;4858504;29;20048;-66
2021/09/03 10:26:44;;;;;;;;;;;22.50;39.80;;;;;;4858243;29;20072;-67
2021/09/03 10:29:29;;;;;;;4.20;1.40;;;22.50;39.70;;;;;;4858603;29;20347;-66
2021/09/03 10:32:07;;;;;;;3.47;1.15;;;23.00;39.20;;;;;;4858945;29;20030;-67
2021/09/03 10:34:39;;;;;;;2.05;0.90;;;23.10;38.40;;;;;;4858490;29;20036;-67
2021/09/03 10:37:18;;;;;;;1.83;0.80;;;23.00;38.50;;;;;;4859500;29;20496;-66
2021/09/03 10:40:05;;;;;;;2.25;0.80;;;22.80;38.90;;;;;;4843557;29;20042;-65
2021/09/03 10:42:49;;;;;;;2.25;0.80;;;23.00;38.80;;;;;;4843853;29;20036;-66
2021/09/03 10:45:18;;;;;;;2.45;0.90;;;23.30;38.40;;;;;;4861790;29;20038;-66
2021/09/03 10:47:47;;;;;;;2.22;0.80;;;23.80;37.90;;;;;;4861362;29;20508;-66
2021/09/03 10:50:25;;;;;;;2.33;1.02;;;24.00;37.00;;;;;;4861824;29;20030;-66
2021/09/03 10:53:03;;;;;;;1.45;0.65;;;23.80;37.00;;;;;;4861129;29;20057;-67
2021/09/03 10:56:06;;;;;;;2.35;1.00;;;23.40;36.90;;;;;;4860429;29;20084;-67
2021/09/03 10:58:54;;;;;;;2.25;0.90;;;23.20;37.40;;;;;;4869506;29;20044;-67
2021/09/03 11:01:27;;;;;;;2.33;0.77;;;22.90;38.10;;;;;;4864706;29;20034;-66
2021/09/03 11:04:01;;;;;;;2.17;0.80;;;23.30;38.20;;;;;;4843107;29;20558;-66
2021/09/03 11:06:32;;;;;;;1.83;0.88;;;23.80;38.00;;;;;;4861233;29;20112;-67
2021/09/03 11:09:02;;;;;;;1.75;0.90;;;23.70;37.30;;;;;;4844783;29;20040;-66
2021/09/03 11:11:36;;;;;;;2.45;0.90;;;23.70;37.70;;;;;;4861166;29;20026;-66
2021/09/03 11:14:03;;;;;;;0.98;0.60;;;24.10;36.70;;;;;;4868302;29;20037;-66
2021/09/03 11:16:42;;;;;;;1.85;0.77;;;24.20;36.70;;;;;;4861265;29;20383;-67
2021/09/03 11:19:20;;;;;;;2.17;0.80;;;25.00;36.30;;;;;;4861211;29;20089;-66
2021/09/03 11:22:08;;;;;;;1.45;0.80;;;24.90;35.90;;;;;;4861031;29;20042;-66
2021/09/03 11:24:39;;;;;;;2.10;0.88;;;24.40;36.10;;;;;;4859022;29;20069;-67
2021/09/03 11:27:08;;;;;;;4.72;1.90;;;23.90;36.70;;;;;;4860786;29;20030;-69
2021/09/03 11:29:45;;;;;;;2.63;1.08;;;24.00;37.60;;;;;;4861176;29;20051;-69
2021/09/03 11:32:22;;;;;;;2.13;0.90;;;24.40;36.70;;;;;;4861181;29;20026;-68
2021/09/03 11:35:06;;;;;;;1.73;0.70;;;24.20;36.60;;;;;;4860918;29;20026;-68
2021/09/03 11:37:42;;;;;;;2.42;0.90;;;24.40;36.70;;;;;;4859359;29;20060;-66
2021/09/03 11:40:16;;;;;;;1.60;0.80;;;24.20;36.30;;;;;;4860899;29;20037;-66
2021/09/03 11:43:02;;;;;;;3.45;0.93;;;24.00;36.60;;;;;;4860791;29;20026;-66
2021/09/03 11:45:34;;;;;;;2.25;1.02;;;23.90;36.70;;;;;;4860729;29;20037;-67
2021/09/03 11:48:05;;;;;;;3.07;0.93;;;23.90;37.10;;;;;;4860198;29;20026;-66
2021/09/03 11:50:34;;;;;;;2.53;0.90;;;24.30;36.70;;;;;;4861075;29;20390;-69
2021/09/03 11:53:02;;;;;;;2.42;1.00;;;24.50;36.10;;;;;;4860948;29;20359;-67
2021/09/03 11:55:33;;;;;;;2.42;0.90;;;24.40;35.80;;;;;;4860837;29;20025;-65
2021/09/03 11:58:06;;;;;;;1.70;0.90;;;24.60;36.10;;;;;;4860975;29;20045;-67
2021/09/03 12:00:36;;;;;;;2.33;0.90;;;25.30;35.50;;;;;;4861115;29;20029;-66
2021/09/03 12:03:04;;;;;;;4.18;1.55;;;25.40;35.00;;;;;;4867020;29;20103;-67
2021/09/03 12:05:31;;;;;;;2.20;1.00;;;25.20;35.30;;;;;;4860811;29;20045;-67
2021/09/03 12:08:10;;;;;;;1.55;0.73;;;25.20;35.40;;;;;;4860667;29;20090;-68
2021/09/03 12:10:54;;;;;;;2.35;0.90;;;25.60;35.30;;;;;;4860657;29;20366;-66
2021/09/03 12:13:22;;;;;;;2.53;1.00;;;26.10;34.60;;;;;;4864147;29;20028;-67
2021/09/03 12:16:01;;;;;;;2.13;0.90;;;26.60;34.70;;;;;;4863146;29;20039;-67
2021/09/03 12:18:34;;;;;;;1.52;0.90;;;26.90;34.10;;;;;;4860536;29;20081;-65
2021/09/03 12:21:20;;;;;;;2.05;0.90;;;26.50;33.90;;;;;;4874345;29;20040;-67
2021/09/03 12:24:02;;;;;;;1.55;0.70;;;25.50;34.50;;;;;;4878942;29;20408;-66
2021/09/03 12:26:50;;;;;;;2.22;0.98;;;24.60;35.20;;;;;;4878984;29;20495;-68
2021/09/03 12:29:21;;;;;;;4.20;1.10;;;23.70;36.50;;;;;;4878863;29;20128;-65
2021/09/03 12:31:59;;;;;;;2.75;0.90;;;23.30;37.40;;;;;;4878937;29;20089;-67
2021/09/03 12:34:33;;;;;;;2.45;1.00;;;23.00;38.00;;;;;;4879021;29;20029;-66
2021/09/03 12:37:01;;;;;;;2.13;1.02;;;22.70;38.30;;;;;;4852231;29;20033;-67
2021/09/03 12:39:27;;;;;;;3.30;1.05;;;23.10;38.90;;;;;;4841814;29;20482;-67
2021/09/03 12:41:53;;;;;;;2.33;0.95;;;23.60;38.50;;;;;;4841841;29;20129;-65
2021/09/03 12:44:25;;;;;;;1.98;0.80;;;23.70;37.70;;;;;;4841516;29;20030;-66
2021/09/03 12:46:54;;;;;;;2.57;0.93;;;23.50;37.50;;;;;;4841777;29;20026;-67
2021/09/03 12:49:28;;;;;;;2.67;0.90;;;23.30;37.90;;;;;;4841437;29;20034;-65
2021/09/03 12:52:01;;;;;;;2.47;0.90;;;23.10;38.20;;;;;;4841617;29;20086;-66
2021/09/03 12:54:28;;;;;;;2.80;1.17;;;22.60;38.90;;;;;;4853439;29;20103;-66
2021/09/03 12:56:54;;;;;;;4.60;2.00;;;22.30;39.10;;;;;;4878512;29;20029;-67